Time,TemperatureF,DewpointF,PressureIn,WindDirection,WindDirectionDegrees,WindSpeedMPH,WindSpeedGustMPH,Humidity,HourlyPrecipIn,Conditions,Clouds,dailyrainin,SoftwareType,DateUTC
2013-02-11 00:04:00,34.7,34.0,30.12,NE,46,0.0,0.0,97,0.00,,,0.00,weatherlink.com 1.10,2013-02-11 08:04:00,
2013-02-11 00:19:00,36.0,36.0,30.12,ENE,65,0.0,0.0,98,0.00,,,0.00,weatherlink.com 1.10,2013-02-11 08:19:00,
2013-02-11 00:34:00,35.8,35.0,30.12,NNE,22,0.0,0.0,98,0.00,,,0.00,weatherlink.com 1.10,2013-02-11 08:34:00,
2013-02-11 00:49:00,35.2,35.0,30.12,ENE,63,0.0,0.0,98,0.00,,,0.00,weatherlink.com 1.10,2013-02-11 08:49:00,
2013-02-11 01:04:00,35.0,34.0,30.12,NE,55,0.0,0.0,97,0.00,,,0.00,weatherlink.com 1.10,2013-02-11 09:04:00,
2013-02-11 01:19:00,34.5,34.0,30.13,NE,50,0.0,0.0,97,0.00,,,0.00,weatherlink.com 1.10,2013-02-11 09:19:00,
2013-02-11 01:34:00,34.5,34.0,30.13,NE,46,0.0,0.0,98,0.00,,,0.00,weatherlink.com 1.10,2013-02-11 09:34:00,
2013-02-11 01:49:00,34.0,33.0,30.13,NE,46,0.0,0.0,97,0.00,,,0.00,weatherlink.com 1.10,2013-02-11 09:49:00,
2013-02-11 02:04:00,33.1,32.0,30.13,NE,51,0.0,0.0,96,0.00,,,0.00,weatherlink.com 1.10,2013-02-11 10:04:00,
2013-02-11 02:20:00,33.6,33.0,30.13,NE,43,0.0,0.0,98,0.00,,,0.00,weatherlink.com 1.10,2013-02-11 10:20:00,
2013-02-11 02:35:00,33.3,33.0,30.14,ENE,58,0.0,0.0,98,0.00,,,0.00,weatherlink.com 1.10,2013-02-11 10:35:00,
2013-02-11 02:50:00,32.9,32.0,30.14,NE,44,0.0,0.0,97,0.00,,,0.00,weatherlink.com 1.10,2013-02-11 10:50:00,
2013-02-11 03:05:00,32.9,32.0,30.14,NE,46,0.0,0.0,98,0.00,,,0.00,weatherlink.com 1.10,2013-02-11 11:05:00,
2013-02-11 03:20:00,33.1,32.0,30.14,NE,46,0.0,0.0,97,0.00,,,0.00,weatherlink.com 1.10,2013-02-11 11:20:00,
2013-02-11 03:35:00,33.2,33.0,30.14,NE,47,0.0,0.0,98,0.00,,,0.00,weatherlink.com 1.10,2013-02-11 11:35:00,
2013-02-11 03:50:00,33.4,33.0,30.14,ENE,77,0.0,0.0,98,0.00,,,0.00,weatherlink.com 1.10,2013-02-11 11:50:00,
2013-02-11 04:05:00,34.0,34.0,30.14,ESE,117,2.0,3.0,98,0.00,,,0.00,weatherlink.com 1.10,2013-02-11 12:05:00,
2013-02-11 04:20:00,36.5,36.0,30.14,SE,145,5.0,9.0,99,0.00,,,0.00,weatherlink.com 1.10,2013-02-11 12:20:00,
2013-02-11 04:35:00,35.3,35.0,30.15,WNW,301,0.0,2.0,98,0.00,,,0.00,weatherlink.com 1.10,2013-02-11 12:35:00,
2013-02-11 04:50:00,34.1,33.0,30.15,NE,42,0.0,2.0,97,0.00,,,0.00,weatherlink.com 1.10,2013-02-11 12:50:00,
2013-02-11 05:05:00,33.9,33.0,30.15,ENE,59,0.0,0.0,98,0.00,,,0.00,weatherlink.com 1.10,2013-02-11 13:05:00,
2013-02-11 05:20:00,34.8,34.0,30.15,SE,124,0.0,0.0,98,0.00,,,0.00,weatherlink.com 1.10,2013-02-11 13:20:00,
2013-02-11 05:35:00,35.1,35.0,30.16,NE,42,0.0,2.0,99,0.00,,,0.00,weatherlink.com 1.10,2013-02-11 13:35:00,
2013-02-11 05:50:00,35.4,35.0,30.16,ENE,70,0.0,2.0,99,0.00,,,0.00,weatherlink.com 1.10,2013-02-11 13:50:00,
2013-02-11 06:05:00,34.2,34.0,30.16,NE,44,0.0,0.0,98,0.00,,,0.00,weatherlink.com 1.10,2013-02-11 14:05:00,
2013-02-11 06:20:00,34.3,34.0,30.16,NE,43,0.0,0.0,98,0.00,,,0.00,weatherlink.com 1.10,2013-02-11 14:20:00,
2013-02-11 06:35:00,35.6,35.0,30.16,SE,137,2.0,6.0,99,0.00,,,0.00,weatherlink.com 1.10,2013-02-11 14:35:00,
2013-02-11 06:50:00,35.9,35.0,30.17,East,91,0.0,4.0,97,0.00,,,0.00,weatherlink.com 1.10,2013-02-11 14:50:00,
2013-02-11 07:05:00,36.5,36.0,30.18,ESE,114,0.0,1.0,98,0.00,,,0.00,weatherlink.com 1.10,2013-02-11 15:05:00,
2013-02-11 07:20:00,36.0,35.0,30.18,NE,55,0.0,5.0,96,0.01,,,0.01,weatherlink.com 1.10,2013-02-11 15:20:00,
2013-02-11 07:35:00,35.4,34.0,30.19,NE,51,0.0,4.0,94,0.01,,,0.01,weatherlink.com 1.10,2013-02-11 15:35:00,
2013-02-11 07:50:00,36.5,35.0,30.20,ENE,60,0.0,4.0,95,0.01,,,0.01,weatherlink.com 1.10,2013-02-11 15:50:00,
2013-02-11 08:05:00,37.5,36.0,30.21,NE,49,3.0,3.0,94,0.01,,,0.01,weatherlink.com 1.10,2013-02-11 16:05:00,
2013-02-11 08:20:00,38.3,37.0,30.21,ESE,120,0.0,2.0,95,0.00,,,0.01,weatherlink.com 1.10,2013-02-11 16:20:00,
2013-02-11 08:35:00,39.7,38.0,30.22,South,174,0.0,0.0,94,0.00,,,0.01,weatherlink.com 1.10,2013-02-11 16:35:00,
2013-02-11 08:50:00,41.0,39.0,30.22,SSW,211,0.0,1.0,94,0.00,,,0.01,weatherlink.com 1.10,2013-02-11 16:50:00,
2013-02-11 09:06:00,42.0,40.0,30.23,SSW,211,0.0,1.0,93,0.00,,,0.01,weatherlink.com 1.10,2013-02-11 17:06:00,
2013-02-11 09:20:00,43.8,42.0,30.23,WSW,238,0.0,2.0,93,0.00,,,0.01,weatherlink.com 1.10,2013-02-11 17:20:00,
2013-02-11 09:36:00,47.7,43.0,30.23,WNW,284,1.0,4.0,84,0.00,,,0.01,weatherlink.com 1.10,2013-02-11 17:36:00,
2013-02-11 09:51:00,52.0,42.0,30.23,West,281,1.0,4.0,68,0.00,,,0.01,weatherlink.com 1.10,2013-02-11 17:51:00,
2013-02-11 10:06:00,54.8,42.0,30.23,West,259,4.0,6.0,62,0.00,,,0.01,weatherlink.com 1.10,2013-02-11 18:06:00,
2013-02-11 10:21:00,56.4,40.0,30.24,ENE,76,0.0,7.0,55,0.00,,,0.01,weatherlink.com 1.10,2013-02-11 18:21:00,
2013-02-11 10:36:00,59.4,35.0,30.23,NNE,26,0.0,6.0,41,0.00,,,0.01,weatherlink.com 1.10,2013-02-11 18:36:00,
2013-02-11 10:51:00,60.7,35.0,30.23,WNW,288,0.0,8.0,39,0.00,,,0.01,weatherlink.com 1.10,2013-02-11 18:51:00,
2013-02-11 11:06:00,61.5,33.0,30.22,NNE,25,5.0,8.0,35,0.00,,,0.01,weatherlink.com 1.10,2013-02-11 19:06:00,
2013-02-11 11:21:00,62.0,35.0,30.22,West,280,4.0,8.0,36,0.00,,,0.01,weatherlink.com 1.10,2013-02-11 19:21:00,
2013-02-11 11:36:00,59.1,41.0,30.21,WNW,295,8.0,10.0,51,0.00,,,0.01,weatherlink.com 1.10,2013-02-11 19:36:00,
2013-02-11 11:51:00,58.7,43.0,30.20,WNW,302,10.0,11.0,56,0.00,,,0.01,weatherlink.com 1.10,2013-02-11 19:51:00,
2013-02-11 12:06:00,59.6,43.0,30.20,WNW,297,8.0,10.0,55,0.00,,,0.01,weatherlink.com 1.10,2013-02-11 20:06:00,
2013-02-11 12:21:00,60.1,45.0,30.19,NW,315,7.0,10.0,57,0.00,,,0.01,weatherlink.com 1.10,2013-02-11 20:21:00,
2013-02-11 12:36:00,60.2,44.0,30.19,WNW,288,6.0,10.0,55,0.00,,,0.01,weatherlink.com 1.10,2013-02-11 20:36:00,
2013-02-11 12:51:00,60.7,42.0,30.18,WNW,298,7.0,10.0,50,0.00,,,0.01,weatherlink.com 1.10,2013-02-11 20:51:00,
2013-02-11 13:06:00,60.7,41.0,30.18,West,280,7.0,9.0,48,0.00,,,0.01,weatherlink.com 1.10,2013-02-11 21:06:00,
2013-02-11 13:21:00,60.3,43.0,30.18,West,279,7.0,11.0,53,0.00,,,0.01,weatherlink.com 1.10,2013-02-11 21:21:00,
2013-02-11 13:36:00,60.5,42.0,30.17,NW,305,5.0,8.0,51,0.00,,,0.01,weatherlink.com 1.10,2013-02-11 21:36:00,
2013-02-11 13:52:00,60.1,39.0,30.17,West,271,7.0,11.0,46,0.00,,,0.01,weatherlink.com 1.10,2013-02-11 21:52:00,
2013-02-11 14:06:00,60.1,38.0,30.17,WNW,293,4.0,11.0,44,0.00,,,0.01,weatherlink.com 1.10,2013-02-11 22:06:00,
2013-02-11 14:22:00,59.2,43.0,30.17,WNW,284,8.0,13.0,56,0.00,,,0.01,weatherlink.com 1.10,2013-02-11 22:22:00,
2013-02-11 14:37:00,56.9,48.0,30.17,WNW,297,11.0,17.0,73,0.00,,,0.01,weatherlink.com 1.10,2013-02-11 22:37:00,
2013-02-11 14:52:00,55.7,49.0,30.17,NW,308,5.0,15.0,79,0.00,,,0.01,weatherlink.com 1.10,2013-02-11 22:52:00,
2013-02-11 15:07:00,55.4,50.0,30.17,WNW,289,7.0,14.0,82,0.00,,,0.01,weatherlink.com 1.10,2013-02-11 23:07:00,
2013-02-11 15:22:00,54.9,50.0,30.17,NW,314,7.0,12.0,83,0.00,,,0.01,weatherlink.com 1.10,2013-02-11 23:22:00,
2013-02-11 15:37:00,54.7,50.0,30.17,WNW,293,11.0,14.0,84,0.00,,,0.01,weatherlink.com 1.10,2013-02-11 23:37:00,
2013-02-11 15:52:00,54.3,50.0,30.17,NW,308,8.0,11.0,85,0.00,,,0.01,weatherlink.com 1.10,2013-02-11 23:52:00,
2013-02-11 16:07:00,54.1,48.0,30.17,WNW,297,8.0,12.0,81,0.00,,,0.01,weatherlink.com 1.10,2013-02-12 00:07:00,
2013-02-11 16:22:00,53.8,48.0,30.18,WNW,297,6.0,9.0,81,0.00,,,0.01,weatherlink.com 1.10,2013-02-12 00:22:00,
2013-02-11 16:37:00,53.5,48.0,30.18,WNW,294,6.0,9.0,81,0.00,,,0.01,weatherlink.com 1.10,2013-02-12 00:37:00,
2013-02-11 16:52:00,52.8,48.0,30.18,West,280,6.0,9.0,85,0.00,,,0.01,weatherlink.com 1.10,2013-02-12 00:52:00,
2013-02-11 17:07:00,52.3,48.0,30.18,West,280,3.0,7.0,86,0.00,,,0.01,weatherlink.com 1.10,2013-02-12 01:07:00,
2013-02-11 17:22:00,51.7,48.0,30.18,WNW,287,1.0,4.0,86,0.00,,,0.01,weatherlink.com 1.10,2013-02-12 01:22:00,
2013-02-11 17:37:00,50.3,47.0,30.18,WNW,288,0.0,2.0,87,0.00,,,0.01,weatherlink.com 1.10,2013-02-12 01:37:00,
2013-02-11 17:52:00,48.5,46.0,30.18,North,3,0.0,1.0,89,0.00,,,0.01,weatherlink.com 1.10,2013-02-12 01:52:00,
2013-02-11 18:07:00,47.2,45.0,30.19,NE,41,0.0,0.0,91,0.00,,,0.01,weatherlink.com 1.10,2013-02-12 02:07:00,
2013-02-11 18:22:00,46.1,44.0,30.19,NE,39,2.0,2.0,92,0.00,,,0.01,weatherlink.com 1.10,2013-02-12 02:22:00,
2013-02-11 18:37:00,45.6,44.0,30.19,NNE,33,0.0,2.0,93,0.00,,,0.01,weatherlink.com 1.10,2013-02-12 02:37:00,
2013-02-11 18:52:00,44.6,43.0,30.20,NE,54,1.0,1.0,93,0.00,,,0.01,weatherlink.com 1.10,2013-02-12 02:52:00,
2013-02-11 19:07:00,43.5,42.0,30.20,ENE,60,0.0,1.0,94,0.00,,,0.01,weatherlink.com 1.10,2013-02-12 03:07:00,
2013-02-11 19:22:00,42.1,41.0,30.21,ENE,60,0.0,0.0,94,0.00,,,0.01,weatherlink.com 1.10,2013-02-12 03:22:00,
2013-02-11 19:37:00,41.0,39.0,30.21,ENE,58,0.0,0.0,94,0.00,,,0.01,weatherlink.com 1.10,2013-02-12 03:37:00,
2013-02-11 19:52:00,40.8,40.0,30.21,NE,54,0.0,0.0,96,0.00,,,0.01,weatherlink.com 1.10,2013-02-12 03:52:00,
2013-02-11 20:07:00,40.5,39.0,30.22,NE,51,0.0,0.0,95,0.00,,,0.01,weatherlink.com 1.10,2013-02-12 04:07:00,
2013-02-11 20:22:00,39.7,39.0,30.22,NE,50,1.0,2.0,96,0.00,,,0.01,weatherlink.com 1.10,2013-02-12 04:22:00,
2013-02-11 20:37:00,39.6,39.0,30.22,NE,43,0.0,2.0,97,0.00,,,0.01,weatherlink.com 1.10,2013-02-12 04:37:00,
2013-02-11 20:52:00,40.0,39.0,30.22,ENE,60,0.0,0.0,96,0.00,,,0.01,weatherlink.com 1.10,2013-02-12 04:52:00,
2013-02-11 21:07:00,41.3,41.0,30.23,SE,136,0.0,2.0,97,0.00,,,0.01,weatherlink.com 1.10,2013-02-12 05:07:00,
2013-02-11 21:22:00,41.0,40.0,30.23,SE,145,0.0,0.0,97,0.00,,,0.01,weatherlink.com 1.10,2013-02-12 05:22:00,
2013-02-11 21:37:00,41.6,41.0,30.23,SSE,149,3.0,4.0,97,0.00,,,0.01,weatherlink.com 1.10,2013-02-12 05:37:00,
2013-02-11 21:52:00,42.3,42.0,30.24,East,100,0.0,3.0,97,0.00,,,0.01,weatherlink.com 1.10,2013-02-12 05:52:00,
2013-02-11 22:07:00,42.3,42.0,30.24,ESE,102,0.0,0.0,97,0.00,,,0.01,weatherlink.com 1.10,2013-02-12 06:07:00,
2013-02-11 22:22:00,42.4,42.0,30.24,SE,131,0.0,2.0,97,0.00,,,0.01,weatherlink.com 1.10,2013-02-12 06:22:00,
2013-02-11 22:37:00,42.0,41.0,30.24,ESE,121,0.0,0.0,97,0.00,,,0.01,weatherlink.com 1.10,2013-02-12 06:37:00,
2013-02-11 22:52:00,41.7,41.0,30.25,ESE,121,0.0,0.0,97,0.00,,,0.01,weatherlink.com 1.10,2013-02-12 06:52:00,
2013-02-11 23:07:00,41.4,41.0,30.25,SE,146,0.0,0.0,97,0.00,,,0.01,weatherlink.com 1.10,2013-02-12 07:07:00,
2013-02-11 23:22:00,40.1,39.0,30.25,ENE,72,0.0,0.0,97,0.00,,,0.01,weatherlink.com 1.10,2013-02-12 07:22:00,
2013-02-11 23:37:00,39.3,39.0,30.26,NE,41,0.0,0.0,97,0.00,,,0.01,weatherlink.com 1.10,2013-02-12 07:37:00,
2013-02-11 23:52:00,39.3,39.0,30.26,NE,49,0.0,0.0,97,0.00,,,0.01,weatherlink.com 1.10,2013-02-12 07:52:00,